Terminal Aerodrome Forecast
Issued by NWS Grand Forks, ND

Home | Current Version | Previous Version | Graphics & Text | Print | Product List | Glossary On
Versions: 1 2 3 4 5 6 7 8 9 10 11 12 13 14 15
000
FTUS43 KFGF 051534 AAA
TAFGFK
TAF AMD
KGFK 051534Z 0516/0612 26015G22KT P6SM SKC
     FM051800 25016G24KT P6SM SKC
     FM052300 24012KT P6SM SKC
     FM060100 23008KT P6SM SKC=

USA.gov is the U.S. government's official web portal to all federal, state and local government web resources and services.